Time;durP1;ratioP1;P1;durP2;ratioP2;P2;SDS_P1;SDS_P2;PMS_P1;PMS_P2;Temp;Humidity;BMP_temperature;BMP_pressure;BME280_temperature;BME280_humidity;BME280_pressure;Samples;Min_cycle;Max_cycle;Signal;HPM_P1;HPM_P2
2023/04/24 00:02:18;;;;;;;;;;;;;;;15.86;100.00;96956.75;5004365;28;19931;-76
2023/04/24 00:04:45;;;;;;;;;;;;;;;15.53;100.00;96956.47;5003767;28;20042;-77
2023/04/24 00:07:12;;;;;;;;;;;;;;;15.21;100.00;96953.41;4999493;28;19992;-78
2023/04/24 00:09:40;;;;;;;;;;;;;;;15.28;100.00;96951.84;4992307;28;20408;-76
2023/04/24 00:12:06;;;;;;;;;;;;;;;15.18;100.00;96949.47;5023137;28;20024;-77
2023/04/24 00:14:33;;;;;;;;;;;;;;;15.35;100.00;96949.47;5027444;28;19973;-77
2023/04/24 00:16:59;;;;;;;;;;;;;;;15.52;100.00;96944.13;5000630;28;19955;-76
2023/04/24 00:19:25;;;;;;;;;;;;;;;14.82;100.00;96941.69;5006592;28;20019;-75
2023/04/24 00:21:52;;;;;;;;;;;;;;;14.26;100.00;96941.63;5010678;28;20525;-78
2023/04/24 00:24:18;;;;;;;;;;;;;;;14.32;100.00;96938.47;5026084;28;20713;-76
2023/04/24 00:26:46;;;;;;;;;;;;;;;14.49;100.00;96937.78;5019300;28;19964;-77
2023/04/24 00:29:12;;;;;;;;;;;;;;;14.37;100.00;96942.94;5017939;28;19936;-77
2023/04/24 00:31:38;;;;;;;;;;;;;;;14.36;100.00;96933.31;5024382;28;20023;-77
2023/04/24 00:34:05;;;;;;;;;;;;;;;14.78;100.00;96924.59;5008108;28;20294;-78
2023/04/24 00:36:32;;;;;;;;;;;;;;;14.97;100.00;96925.09;5015183;28;19933;-77
2023/04/24 00:38:58;;;;;;;;;;;;;;;15.17;100.00;96922.88;5019283;28;19936;-78
2023/04/24 00:41:25;;;;;;;;;;;;;;;15.51;100.00;96929.06;5021466;28;20019;-77
2023/04/24 00:43:53;;;;;;;;;;;;;;;15.76;100.00;96926.66;5026752;28;20399;-77
2023/04/24 00:46:20;;;;;;;;;;;;;;;15.73;100.00;96925.41;5020620;28;20016;-77
2023/04/24 00:48:47;;;;;;;;;;;;;;;15.38;100.00;96932.69;5026929;28;20419;-77
2023/04/24 00:51:13;;;;;;;;;;;;;;;15.56;100.00;96939.69;5023762;28;20054;-77
2023/04/24 00:53:40;;;;;;;;;;;;;;;15.80;100.00;96939.16;5014230;28;19929;-77
2023/04/24 00:56:06;;;;;;;;;;;;;;;15.89;100.00;96931.06;5013611;28;20350;-77
2023/04/24 00:58:32;;;;;;;;;;;;;;;15.80;100.00;96928.41;5010229;28;19925;-77
2023/04/24 01:01:00;;;;;;;;;;;;;;;15.82;100.00;96920.00;5011057;28;20032;-77
2023/04/24 01:03:29;;;;;;;;;;;;;;;15.52;100.00;96927.16;5016934;28;19991;-76
2023/04/24 01:05:56;;;;;;;;;;;;;;;15.33;100.00;96923.97;5018767;28;19983;-77
2023/04/24 01:08:24;;;;;;;;;;;;;;;15.52;100.00;96921.78;5017492;28;19954;-78
2023/04/24 01:10:52;;;;;;;;;;;;;;;15.79;100.00;96924.13;5025065;28;20171;-77
2023/04/24 01:13:18;;;;;;;;;;;;;;;15.83;100.00;96922.38;5018359;28;19944;-77
2023/04/24 01:15:45;;;;;;;;;;;;;;;15.94;100.00;96920.13;5014499;28;19925;-76
2023/04/24 01:18:13;;;;;;;;;;;;;;;15.89;100.00;96917.59;5009870;28;20418;-77
2023/04/24 01:20:40;;;;;;;;;;;;;;;15.90;100.00;96928.06;5010794;28;19929;-77
2023/04/24 01:23:08;;;;;;;;;;;;;;;16.00;100.00;96921.56;5020369;28;19967;-77
2023/04/24 01:25:35;;;;;;;;;;;;;;;16.06;100.00;96925.66;5014430;28;19952;-77
2023/04/24 01:28:01;;;;;;;;;;;;;;;16.17;100.00;96929.56;5017468;28;19925;-77
2023/04/24 01:30:28;;;;;;;;;;;;;;;16.13;100.00;96925.94;5005979;28;19925;-77
2023/04/24 01:32:54;;;;;;;;;;;;;;;16.14;100.00;96931.00;5008096;28;19929;-77
2023/04/24 01:35:21;;;;;;;;;;;;;;;15.72;100.00;96921.13;4998955;28;19933;-77
2023/04/24 01:37:47;;;;;;;;;;;;;;;15.83;100.00;96927.75;5003640;28;20029;-76
2023/04/24 01:40:15;;;;;;;;;;;;;;;15.90;100.00;96928.06;4998601;28;19924;-77
2023/04/24 01:42:41;;;;;;;;;;;;;;;15.69;100.00;96935.22;5019040;28;20032;-77
2023/04/24 01:45:10;;;;;;;;;;;;;;;15.44;100.00;96931.41;5015203;28;20266;-77
2023/04/24 01:47:37;;;;;;;;;;;;;;;15.33;100.00;96934.75;5016475;28;19925;-77
2023/04/24 01:50:04;;;;;;;;;;;;;;;15.18;100.00;96925.25;5005028;28;19925;-76
2023/04/24 01:52:33;;;;;;;;;;;;;;;15.02;100.00;96916.84;5001612;28;19929;-76
2023/04/24 01:55:00;;;;;;;;;;;;;;;14.89;100.00;96920.47;5003454;28;19925;-77
2023/04/24 01:57:30;;;;;;;;;;;;;;;15.03;100.00;96921.13;5009330;28;19936;-76
2023/04/24 01:59:56;;;;;;;;;;;;;;;15.13;100.00;96920.81;5010012;28;19929;-76
2023/04/24 02:02:23;;;;;;;;;;;;;;;15.38;100.00;96921.16;5011964;28;20032;-76
2023/04/24 02:04:50;;;;;;;;;;;;;;;15.47;100.00;96919.25;5015788;28;20293;-77
2023/04/24 02:07:16;;;;;;;;;;;;;;;15.65;100.00;96915.44;5001514;28;19925;-77
2023/04/24 02:09:42;;;;;;;;;;;;;;;15.77;100.00;96912.91;5011383;28;19943;-76
2023/04/24 02:12:09;;;;;;;;;;;;;;;15.73;100.00;96901.16;5013844;28;20033;-76
2023/04/24 02:14:37;;;;;;;;;;;;;;;15.84;100.00;96909.72;5012897;28;20020;-77
2023/04/24 02:17:03;;;;;;;;;;;;;;;15.92;100.00;96914.28;5013506;28;19925;-76
2023/04/24 02:19:29;;;;;;;;;;;;;;;16.01;100.00;96902.38;5010960;28;19925;-77
2023/04/24 02:21:56;;;;;;;;;;;;;;;16.04;100.00;96890.94;5030802;28;19932;-76
2023/04/24 02:24:22;;;;;;;;;;;;;;;16.10;100.00;96897.75;5008935;28;20141;-77
2023/04/24 02:26:48;;;;;;;;;;;;;;;16.13;100.00;96893.59;5017809;28;20024;-77
2023/04/24 02:29:15;;;;;;;;;;;;;;;16.14;100.00;96890.59;5021095;28;19931;-77
2023/04/24 02:31:43;;;;;;;;;;;;;;;16.17;100.00;96891.84;5015727;28;19929;-77
2023/04/24 02:34:10;;;;;;;;;;;;;;;16.14;100.00;96887.13;5008062;28;19930;-77
2023/04/24 02:36:36;;;;;;;;;;;;;;;16.08;100.00;96875.75;5024040;28;19929;-76
2023/04/24 02:39:03;;;;;;;;;;;;;;;16.11;100.00;96877.78;5020414;28;19987;-76
2023/04/24 02:41:31;;;;;;;;;;;;;;;16.12;100.00;96871.25;5003328;28;19936;-77
2023/04/24 02:43:58;;;;;;;;;;;;;;;16.13;100.00;96872.84;5007883;28;19932;-77
2023/04/24 02:46:24;;;;;;;;;;;;;;;16.17;100.00;96878.38;5015855;28;19935;-77
2023/04/24 02:48:52;;;;;;;;;;;;;;;16.17;100.00;96863.03;5013956;28;20663;-76
2023/04/24 02:51:18;;;;;;;;;;;;;;;16.14;100.00;96871.75;5012450;28;19931;-77
2023/04/24 02:53:45;;;;;;;;;;;;;;;16.15;100.00;96870.63;5012759;28;20026;-77
2023/04/24 02:56:12;;;;;;;;;;;;;;;16.13;100.00;96864.78;5022388;28;19936;-77
2023/04/24 02:58:38;;;;;;;;;;;;;;;16.14;100.00;96869.06;5011809;28;20428;-76
2023/04/24 03:01:04;;;;;;;;;;;;;;;16.14;100.00;96879.84;5012204;28;19930;-77
2023/04/24 03:03:31;;;;;;;;;;;;;;;16.16;100.00;96866.03;5012266;28;19925;-77
2023/04/24 03:05:58;;;;;;;;;;;;;;;16.15;100.00;96859.06;5012430;28;20111;-77
2023/04/24 03:08:25;;;;;;;;;;;;;;;16.09;100.00;96852.28;5000575;28;20089;-77
2023/04/24 03:10:51;;;;;;;;;;;;;;;15.99;100.00;96860.72;5004880;28;20038;-77
2023/04/24 03:13:17;;;;;;;;;;;;;;;16.02;100.00;96865.47;5006633;28;20308;-77
2023/04/24 03:15:44;;;;;;;;;;;;;;;15.88;100.00;96868.34;5014329;28;20626;-77
2023/04/24 03:18:11;;;;;;;;;;;;;;;15.97;100.00;96862.94;5014750;28;19933;-77
2023/04/24 03:20:37;;;;;;;;;;;;;;;15.95;100.00;96860.56;5013969;28;19956;-77
2023/04/24 03:23:05;;;;;;;;;;;;;;;15.93;100.00;96864.72;4999662;28;20006;-77
2023/04/24 03:25:31;;;;;;;;;;;;;;;15.72;100.00;96859.22;4993057;28;20031;-77
2023/04/24 03:27:58;;;;;;;;;;;;;;;15.85;100.00;96870.88;4998629;28;20287;-77
2023/04/24 03:30:24;;;;;;;;;;;;;;;15.62;100.00;96870.34;5022161;28;19965;-77
2023/04/24 03:32:50;;;;;;;;;;;;;;;15.69;100.00;96867.94;5012552;28;19929;-77
2023/04/24 03:35:17;;;;;;;;;;;;;;;15.70;100.00;96871.41;5008846;28;20020;-77
2023/04/24 03:37:43;;;;;;;;;;;;;;;15.73;100.00;96868.06;5020366;28;20316;-77
2023/04/24 03:40:11;;;;;;;;;;;;;;;15.72;100.00;96871.91;5016484;28;20011;-77
2023/04/24 03:42:37;;;;;;;;;;;;;;;15.72;100.00;96877.28;5009952;28;20035;-76
2023/04/24 03:45:04;;;;;;;;;;;;;;;15.63;100.00;96882.66;5016692;28;20635;-77
2023/04/24 03:47:30;;;;;;;;;;;;;;;15.60;100.00;96877.91;5009906;28;19929;-77
2023/04/24 03:49:57;;;;;;;;;;;;;;;15.60;100.00;96872.53;5011827;28;19929;-77
2023/04/24 03:52:23;;;;;;;;;;;;;;;15.70;100.00;96880.28;5015868;28;19933;-77
2023/04/24 03:54:49;;;;;;;;;;;;;;;15.57;100.00;96886.63;5010137;28;20055;-77
2023/04/24 03:57:17;;;;;;;;;;;;;;;15.59;100.00;96881.75;5011537;28;19956;-77
2023/04/24 03:59:43;;;;;;;;;;;;;;;15.55;100.00;96888.88;5010303;28;19929;-77
2023/04/24 04:02:10;;;;;;;;;;;;;;;15.47;100.00;96886.97;5009087;28;19929;-77
2023/04/24 04:04:36;;;;;;;;;;;;;;;15.47;100.00;96886.97;5013056;28;20009;-77
2023/04/24 04:07:02;;;;;;;;;;;;;;;15.50;100.00;96887.16;5021519;28;19929;-77
2023/04/24 04:09:29;;;;;;;;;;;;;;;15.46;100.00;96886.16;5016696;28;19971;-77
2023/04/24 04:11:55;;;;;;;;;;;;;;;15.40;100.00;96875.88;5004490;28;20024;-77
2023/04/24 04:14:23;;;;;;;;;;;;;;;15.50;100.00;96886.34;5015006;28;19936;-77
2023/04/24 04:16:49;;;;;;;;;;;;;;;15.38;100.00;96888.88;5018115;28;19933;-77
2023/04/24 04:19:15;;;;;;;;;;;;;;;15.47;100.00;96887.75;5013698;28;19965;-77
2023/04/24 04:21:42;;;;;;;;;;;;;;;15.55;100.00;96888.88;5012874;28;19925;-77
2023/04/24 04:24:09;;;;;;;;;;;;;;;15.48;100.00;96886.66;5020958;28;19979;-77
2023/04/24 04:26:37;;;;;;;;;;;;;;;15.53;100.00;96888.41;5007962;28;20358;-77
2023/04/24 04:29:04;;;;;;;;;;;;;;;15.61;100.00;96888.38;5010798;28;19933;-78
2023/04/24 04:31:31;;;;;;;;;;;;;;;15.62;100.00;96891.88;5016263;28;19929;-76
2023/04/24 04:33:58;;;;;;;;;;;;;;;15.40;100.00;96886.66;4999246;28;20313;-77
2023/04/24 04:36:25;;;;;;;;;;;;;;;15.44;100.00;96887.59;5006951;28;19959;-77
2023/04/24 04:38:52;;;;;;;;;;;;;;;15.44;100.00;96885.66;5005468;28;19929;-77
2023/04/24 04:41:18;;;;;;;;;;;;;;;15.23;100.00;96887.44;5005290;28;19931;-77
2023/04/24 04:43:46;;;;;;;;;;;;;;;15.37;100.00;96881.91;5006440;28;20013;-77
2023/04/24 04:46:12;;;;;;;;;;;;;;;15.46;100.00;96894.22;5011738;28;19925;-77
2023/04/24 04:48:40;;;;;;;;;;;;;;;15.41;100.00;96891.69;5008891;28;20609;-78
2023/04/24 04:51:06;;;;;;;;;;;;;;;15.38;100.00;96899.63;4999878;28;19929;-76
2023/04/24 04:53:32;;;;;;;;;;;;;;;15.36;100.00;96893.75;5001483;28;19925;-76
2023/04/24 04:55:59;;;;;;;;;;;;;;;15.27;100.00;96887.59;5008008;28;19929;-77
2023/04/24 04:58:26;;;;;;;;;;;;;;;15.40;100.00;96890.13;5012714;28;20021;-76
2023/04/24 05:00:52;;;;;;;;;;;;;;;15.45;100.00;96881.09;5017765;28;20336;-77
2023/04/24 05:03:19;;;;;;;;;;;;;;;15.51;100.00;96893.28;5011572;28;20263;-77
2023/04/24 05:05:48;;;;;;;;;;;;;;;15.51;100.00;96896.78;5009213;28;21478;-77
2023/04/24 05:08:15;;;;;;;;;;;;;;;15.54;100.00;96892.66;5018116;28;19929;-77
2023/04/24 05:10:41;;;;;;;;;;;;;;;15.52;100.00;96900.25;5008610;28;20411;-77
2023/04/24 05:13:07;;;;;;;;;;;;;;;15.48;100.00;96893.94;5010409;28;20317;-76
2023/04/24 05:15:34;;;;;;;;;;;;;;;15.50;100.00;96897.13;5022081;28;19945;-77
2023/04/24 05:18:00;;;;;;;;;;;;;;;15.34;100.00;96896.78;5026659;28;19982;-75
2023/04/24 05:20:26;;;;;;;;;;;;;;;15.10;100.00;96894.56;5020282;28;20640;-77
2023/04/24 05:22:54;;;;;;;;;;;;;;;15.37;100.00;96909.59;5009285;28;19960;-76
2023/04/24 05:25:21;;;;;;;;;;;;;;;15.11;100.00;96904.22;5019608;28;20405;-77
2023/04/24 05:27:47;;;;;;;;;;;;;;;15.04;100.00;96911.94;5008328;28;20034;-77
2023/04/24 05:30:13;;;;;;;;;;;;;;;15.23;100.00;96908.16;5014465;28;20476;-77
2023/04/24 05:32:40;;;;;;;;;;;;;;;15.24;100.00;96913.22;5012156;28;19925;-77
2023/04/24 05:35:07;;;;;;;;;;;;;;;15.39;100.00;96920.81;5020266;28;19926;-76
2023/04/24 05:37:33;;;;;;;;;;;;;;;15.37;100.00;96919.56;5021441;28;20024;-76
2023/04/24 05:40:01;;;;;;;;;;;;;;;15.41;100.00;96925.91;5022175;28;20056;-76
2023/04/24 05:42:28;;;;;;;;;;;;;;;15.42;100.00;96924.78;5009350;28;19925;-79
2023/04/24 05:44:54;;;;;;;;;;;;;;;15.44;100.00;96926.03;5014642;28;19944;-77
2023/04/24 05:47:21;;;;;;;;;;;;;;;15.23;100.00;96924.28;5019247;28;19925;-77
2023/04/24 05:49:47;;;;;;;;;;;;;;;15.42;100.00;96930.16;5016370;28;19925;-77
2023/04/24 05:52:14;;;;;;;;;;;;;;;15.12;100.00;96927.31;5017645;28;20300;-77
2023/04/24 05:54:40;;;;;;;;;;;;;;;15.18;100.00;96925.25;5010493;28;19929;-77
2023/04/24 05:57:08;;;;;;;;;;;;;;;15.19;100.00;96928.75;5010215;28;20028;-77
2023/04/24 05:59:34;;;;;;;;;;;;;;;15.34;100.00;96923.69;4993445;28;20028;-76
2023/04/24 06:02:00;;;;;;;;;;;;;;;15.24;100.00;96925.88;5003141;28;19933;-77
2023/04/24 06:04:27;;;;;;;;;;;;;;;15.01;100.00;96931.41;5009583;28;20037;-77
2023/04/24 06:06:55;;;;;;;;;;;;;;;15.07;100.00;96932.06;5019461;28;19960;-77
2023/04/24 06:09:22;;;;;;;;;;;;;;;15.12;100.00;96929.22;5016447;28;19925;-77
2023/04/24 06:11:48;;;;;;;;;;;;;;;15.27;100.00;96931.44;5009649;28;20403;-78
2023/04/24 06:14:16;;;;;;;;;;;;;;;15.21;100.00;96939.97;5000163;28;20016;-78
2023/04/24 06:16:42;;;;;;;;;;;;;;;15.16;100.00;96937.44;5015468;28;20585;-77
2023/04/24 06:19:09;;;;;;;;;;;;;;;15.19;100.00;96939.50;5009109;28;20024;-76
2023/04/24 06:21:35;;;;;;;;;;;;;;;14.78;100.00;96938.03;5007659;28;19925;-77
2023/04/24 06:24:02;;;;;;;;;;;;;;;15.04;100.00;96941.53;5011698;28;19932;-77
2023/04/24 06:26:28;;;;;;;;;;;;;;;15.13;100.00;96939.63;5001690;28;19925;-77
2023/04/24 06:28:54;;;;;;;;;;;;;;;15.10;100.00;96936.81;5021509;28;19968;-78
2023/04/24 06:31:22;;;;;;;;;;;;;;;15.04;100.00;96933.47;5004087;28;19972;-78
2023/04/24 06:33:49;;;;;;;;;;;;;;;15.10;100.00;96936.81;5003035;28;19929;-76
2023/04/24 06:36:15;;;;;;;;;;;;;;;15.06;100.00;96941.22;5012273;28;19956;-77
2023/04/24 06:38:41;;;;;;;;;;;;;;;15.13;100.00;96953.06;5009638;28;19951;-78
2023/04/24 06:41:08;;;;;;;;;;;;;;;15.05;100.00;96937.75;5021889;28;19925;-79
2023/04/24 06:43:34;;;;;;;;;;;;;;;15.00;100.00;96945.97;5022075;28;19932;-77
2023/04/24 06:46:03;;;;;;;;;;;;;;;15.13;100.00;96946.94;5004773;28;19968;-77
2023/04/24 06:48:30;;;;;;;;;;;;;;;14.96;100.00;96945.00;5025457;28;20397;-77
2023/04/24 06:50:57;;;;;;;;;;;;;;;14.63;100.00;96943.84;5013525;28;20334;-77
2023/04/24 06:53:23;;;;;;;;;;;;;;;14.74;100.00;96953.19;5011845;28;19935;-78
2023/04/24 06:55:50;;;;;;;;;;;;;;;14.90;100.00;96942.78;5016525;28;19940;-77
2023/04/24 06:58:16;;;;;;;;;;;;;;;14.92;100.00;96938.66;5012352;28;19934;-77
2023/04/24 07:00:42;;;;;;;;;;;;;;;14.76;100.00;96944.81;5009408;28;19925;-77
2023/04/24 07:03:09;;;;;;;;;;;;;;;14.83;100.00;96942.44;5011295;28;19951;-77
2023/04/24 07:05:38;;;;;;;;;;;;;;;14.74;100.00;96941.63;5012559;28;19925;-77
2023/04/24 07:08:04;;;;;;;;;;;;;;;15.02;100.00;96938.38;5016264;28;20024;-77
2023/04/24 07:10:30;;;;;;;;;;;;;;;15.12;100.00;96948.84;4998671;28;19925;-76
2023/04/24 07:12:57;;;;;;;;;;;;;;;15.16;100.00;96943.63;5005661;28;19925;-78
2023/04/24 07:15:23;;;;;;;;;;;;;;;15.15;100.00;96944.72;5011687;28;19935;-78
2023/04/24 07:17:50;;;;;;;;;;;;;;;15.12;100.00;96946.13;5010313;28;19933;-77
2023/04/24 07:20:16;;;;;;;;;;;;;;;15.20;100.00;96949.13;5010947;28;19925;-77
2023/04/24 07:22:44;;;;;;;;;;;;;;;15.00;100.00;96948.66;5005149;28;19936;-77
2023/04/24 07:25:10;;;;;;;;;;;;;;;14.95;100.00;96948.78;5010331;28;19972;-77
2023/04/24 07:27:37;;;;;;;;;;;;;;;15.13;100.00;96945.00;5000361;28;20432;-78
2023/04/24 07:30:03;;;;;;;;;;;;;;;14.75;100.00;96952.09;4995504;28;19936;-77
2023/04/24 07:32:30;;;;;;;;;;;;;;;14.75;100.00;96941.34;4992903;28;19983;-77
2023/04/24 07:34:56;;;;;;;;;;;;;;;14.82;100.00;96947.03;5010232;28;19993;-78
2023/04/24 07:37:23;;;;;;;;;;;;;;;15.04;100.00;96946.91;5004501;28;19984;-77
2023/04/24 07:39:51;;;;;;;;;;;;;;;14.73;100.00;96948.91;5011304;28;19929;-77
2023/04/24 07:42:17;;;;;;;;;;;;;;;14.90;100.00;96942.78;4995362;28;19940;-77
2023/04/24 07:44:44;;;;;;;;;;;;;;;14.85;100.00;96951.78;4996594;28;20019;-77
2023/04/24 07:47:10;;;;;;;;;;;;;;;14.91;100.00;96955.13;5005428;28;19925;-77
2023/04/24 07:49:37;;;;;;;;;;;;;;;15.07;100.00;96954.34;5005457;28;20008;-77
2023/04/24 07:52:03;;;;;;;;;;;;;;;15.14;100.00;96957.38;4999648;28;19925;-77
2023/04/24 07:54:30;;;;;;;;;;;;;;;15.21;100.00;96958.78;5008666;28;19936;-76
2023/04/24 07:56:57;;;;;;;;;;;;;;;14.97;100.00;96957.34;5003760;28;19964;-77
2023/04/24 07:59:24;;;;;;;;;;;;;;;14.72;100.00;96963.47;5005338;28;19925;-77
2023/04/24 08:01:50;;;;;;;;;;;;;;;14.67;100.00;96968.19;5010277;28;20015;-77
2023/04/24 08:04:17;;;;;;;;;;;;;;;14.89;100.00;96974.25;5011060;28;19932;-78
2023/04/24 08:06:44;;;;;;;;;;;;;;;15.17;100.00;96971.28;5009814;28;19929;-77
2023/04/24 08:09:10;;;;;;;;;;;;;;;15.11;100.00;96966.06;5014882;28;20011;-77
2023/04/24 08:11:36;;;;;;;;;;;;;;;15.04;100.00;96959.59;5019092;28;19925;-78
2023/04/24 08:14:04;;;;;;;;;;;;;;;14.93;100.00;96963.66;5021126;28;20019;-78
2023/04/24 08:16:31;;;;;;;;;;;;;;;14.70;100.00;96959.50;5009795;28;19987;-77
2023/04/24 08:18:57;;;;;;;;;;;;;;;14.91;100.00;96955.13;5011430;28;19925;-77
2023/04/24 08:21:23;;;;;;;;;;;;;;;15.12;100.00;96961.47;5005639;28;20567;-78
2023/04/24 08:23:50;;;;;;;;;;;;;;;15.07;100.00;96956.25;5004989;28;19934;-78
2023/04/24 08:26:16;;;;;;;;;;;;;;;14.87;100.00;96952.25;5011650;28;20022;-77
2023/04/24 08:28:43;;;;;;;;;;;;;;;14.88;100.00;96964.63;5014195;28;19929;-77
2023/04/24 08:31:10;;;;;;;;;;;;;;;15.05;100.00;96955.75;5015882;28;20008;-77
2023/04/24 08:33:37;;;;;;;;;;;;;;;15.07;100.00;96964.34;5004423;28;19931;-76
2023/04/24 08:36:03;;;;;;;;;;;;;;;15.29;100.00;96974.94;5012117;28;19929;-77
2023/04/24 08:38:30;;;;;;;;;;;;;;;15.07;100.00;97002.75;5008362;28;20486;-76
2023/04/24 08:40:57;;;;;;;;;;;;;;;14.90;100.00;96997.34;5013915;28;19983;-77
2023/04/24 08:43:24;;;;;;;;;;;;;;;14.56;100.00;97003.41;5012010;28;19925;-78
2023/04/24 08:45:50;;;;;;;;;;;;;;;14.53;100.00;96995.97;5010428;28;19932;-78
2023/04/24 08:48:18;;;;;;;;;;;;;;;14.43;100.00;97003.47;5015403;28;20032;-76
2023/04/24 08:50:44;;;;;;;;;;;;;;;14.39;100.00;97008.69;5011831;28;19931;-77
2023/04/24 08:53:11;;;;;;;;;;;;;;;14.39;100.00;97013.28;5003674;28;19940;-77
2023/04/24 08:55:38;;;;;;;;;;;;;;;14.57;100.00;96998.81;4999857;28;19993;-76
2023/04/24 08:58:04;;;;;;;;;;;;;;;14.71;100.00;97004.88;4993940;28;20633;-77
2023/04/24 09:00:31;;;;;;;;;;;;;;;14.75;100.00;97011.22;4990949;28;20417;-77
2023/04/24 09:02:58;;;;;;;;;;;;;;;14.88;100.00;97015.69;5009270;28;19926;-77
2023/04/24 09:05:26;;;;;;;;;;;;;;;14.97;100.00;97018.38;5018402;28;19931;-77
2023/04/24 09:07:55;;;;;;;;;;;;;;;14.99;100.00;97025.03;5018547;28;19929;-78
2023/04/24 09:10:21;;;;;;;;;;;;;;;14.94;100.00;97014.44;5008084;28;19929;-77
2023/04/24 09:12:48;;;;;;;;;;;;;;;14.87;100.00;97014.09;4999820;28;19929;-76
2023/04/24 09:15:15;;;;;;;;;;;;;;;14.82;100.00;97008.88;5002120;28;20012;-77
2023/04/24 09:17:41;;;;;;;;;;;;;;;14.81;100.00;97006.47;5014668;28;20024;-78
2023/04/24 09:20:08;;;;;;;;;;;;;;;14.84;100.00;97008.53;5012742;28;20613;-77
2023/04/24 09:22:36;;;;;;;;;;;;;;;15.00;100.00;97005.13;5012079;28;19931;-76
2023/04/24 09:25:04;;;;;;;;;;;;;;;15.23;100.00;97005.78;5015701;28;19933;-78
2023/04/24 09:27:30;;;;;;;;;;;;;;;15.15;100.00;97009.25;5012466;28;20405;-77
2023/04/24 09:29:57;;;;;;;;;;;;;;;14.92;100.00;96997.81;5015834;28;20425;-76
2023/04/24 09:32:25;;;;;;;;;;;;;;;14.93;100.00;96994.03;5019063;28;19929;-77
2023/04/24 09:35:06;;;;;;;;;;;;;;;15.22;100.00;96998.03;5013764;28;19963;-77
2023/04/24 09:37:35;;;;;;;;;;;;;;;15.41;100.00;96996.63;5014794;28;19929;-77
2023/04/24 09:40:10;;;;;;;;;;;;;;;15.40;100.00;96986.19;5016937;28;19931;-77
2023/04/24 09:42:37;;;;;;;;;;;;;;;15.23;100.00;96992.31;5006932;28;20455;-77
2023/04/24 09:45:03;;;;;;;;;;;;;;;14.94;100.00;97009.06;5008895;28;20532;-78
2023/04/24 09:47:36;;;;;;;;;;;;;;;15.20;100.00;97013.69;5015383;28;20633;-77
2023/04/24 09:50:09;;;;;;;;;;;;;;;15.52;100.00;97018.66;5011762;28;20028;-77
2023/04/24 09:52:36;;;;;;;;;;;;;;;15.51;100.00;97019.75;5019081;28;20520;-77
2023/04/24 09:55:02;;;;;;;;;;;;;;;15.20;100.00;97019.06;5016201;28;20652;-77
2023/04/24 09:57:30;;;;;;;;;;;;;;;15.04;100.00;97014.13;5007621;28;19973;-78
2023/04/24 09:59:58;;;;;;;;;;;;;;;15.16;100.00;97020.81;5015446;28;19933;-77
2023/04/24 10:02:24;;;;;;;;;;;;;;;15.14;100.00;97029.97;5016132;28;19925;-77
2023/04/24 10:04:55;;;;;;;;;;;;;;;15.28;100.00;97018.28;5010118;28;20417;-78
2023/04/24 10:07:21;;;;;;;;;;;;;;;15.39;100.00;97020.34;5019365;28;20368;-77
2023/04/24 10:09:48;;;;;;;;;;;;;;;15.49;100.00;97027.38;5014545;28;20019;-77
2023/04/24 10:12:15;;;;;;;;;;;;;;;15.37;100.00;97048.69;4998373;28;19926;-77
2023/04/24 10:14:42;;;;;;;;;;;;;;;15.22;100.00;97039.19;5009405;28;20028;-77
2023/04/24 10:17:09;;;;;;;;;;;;;;;15.17;100.00;97041.19;5003052;28;20027;-77
2023/04/24 10:19:36;;;;;;;;;;;;;;;15.22;100.00;97038.38;5001643;28;19935;-77
2023/04/24 10:22:03;;;;;;;;;;;;;;;15.17;100.00;97035.81;4994592;28;20452;-76
2023/04/24 10:24:30;;;;;;;;;;;;;;;15.21;100.00;97045.66;4993812;28;19933;-77
2023/04/24 10:26:57;;;;;;;;;;;;;;;15.20;100.00;97045.94;5016755;28;19935;-77
2023/04/24 10:29:24;;;;;;;;;;;;;;;15.06;100.00;97048.78;5021850;28;19984;-77
2023/04/24 10:31:52;;;;;;;;;;;;;;;15.14;100.00;97043.41;5013848;28;20096;-77
2023/04/24 10:34:20;;;;;;;;;;;;;;;15.11;100.00;97040.56;5002749;28;20024;-78
2023/04/24 10:36:49;;;;;;;;;;;;;;;15.13;100.00;97043.75;4989054;28;19929;-78
2023/04/24 10:39:17;;;;;;;;;;;;;;;15.00;100.00;97045.44;5001119;28;19929;-78
2023/04/24 10:41:43;;;;;;;;;;;;;;;15.08;100.00;97051.94;5004082;28;19947;-78
2023/04/24 10:44:13;;;;;;;;;;;;;;;15.11;100.00;97051.31;5009236;28;19929;-78
2023/04/24 10:46:40;;;;;;;;;;;;;;;15.20;100.00;97054.81;5013157;28;20027;-76
2023/04/24 10:49:08;;;;;;;;;;;;;;;15.07;100.00;97045.75;5014230;28;19925;-77
2023/04/24 10:51:45;;;;;;;;;;;;;;;15.23;100.00;97054.19;5016039;28;19933;-78
2023/04/24 10:54:22;;;;;;;;;;;;;;;15.23;100.00;97053.41;5011553;28;19933;-77
2023/04/24 10:56:49;;;;;;;;;;;;;;;15.40;100.00;97050.75;5008136;28;19925;-78
2023/04/24 10:59:24;;;;;;;;;;;;;;;15.49;100.00;97041.63;5013630;28;19998;-77
2023/04/24 11:01:53;;;;;;;;;;;;;;;15.66;100.00;97046.19;5001810;28;19926;-77
2023/04/24 11:04:29;;;;;;;;;;;;;;;15.55;100.00;97039.56;5017557;28;19936;-79
2023/04/24 11:06:56;;;;;;;;;;;;;;;15.72;100.00;97028.03;5018280;28;20597;-77
2023/04/24 11:09:22;;;;;;;;;;;;;;;15.54;100.00;97036.06;5019084;28;19936;-77
2023/04/24 11:11:49;;;;;;;;;;;;;;;15.70;100.00;97033.69;5012469;28;20566;-77
2023/04/24 11:14:16;;;;;;;;;;;;;;;15.49;100.00;97036.22;5012840;28;20014;-76
2023/04/24 11:16:44;;;;;;;;;;;;;;;15.44;100.00;97036.34;5009516;28;19947;-77
2023/04/24 11:19:18;;;;;;;;;;;;;;;15.59;100.00;97029.75;5015007;28;19947;-77
2023/04/24 11:21:46;;;;;;;;;;;;;;;15.40;100.00;97031.91;5008458;28;20500;-78
2023/04/24 11:24:25;;;;;;;;;;;;;;;15.54;100.00;97035.28;5005742;28;19999;-77
2023/04/24 11:26:52;;;;;;;;;;;;;;;15.54;100.00;97049.53;5011556;28;19926;-78
2023/04/24 11:29:20;;;;;;;;;;;;;;;15.42;100.00;97049.31;5012972;28;20514;-78
2023/04/24 11:31:49;;;;;;;;;;;;;;;15.30;100.00;97059.09;5023088;28;19970;-78
2023/04/24 11:34:16;;;;;;;;;;;;;;;15.19;100.00;97058.63;5012698;28;19929;-77
2023/04/24 11:36:43;;;;;;;;;;;;;;;14.97;100.00;97080.22;5012146;28;20506;-78
2023/04/24 11:39:12;;;;;;;;;;;;;;;14.81;100.00;97085.22;5011176;28;19928;-77
2023/04/24 11:41:38;;;;;;;;;;;;;;;14.69;100.00;97093.06;5010609;28;20040;-77
2023/04/24 11:44:06;;;;;;;;;;;;;;;14.75;100.00;97097.22;4998661;28;20031;-76
2023/04/24 11:46:33;;;;;;;;;;;;;;;14.64;100.00;97095.88;4994125;28;20262;-77
2023/04/24 11:49:00;;;;;;;;;;;;;;;14.62;100.00;97089.22;4990742;28;19947;-77
2023/04/24 11:51:27;;;;;;;;;;;;;;;14.73;100.00;97080.59;4997744;28;19937;-77
2023/04/24 11:53:53;;;;;;;;;;;;;;;14.69;100.00;97076.94;5011472;28;19932;-77
2023/04/24 11:56:21;;;;;;;;;;;;;;;14.91;100.00;97073.41;5000445;28;19955;-77
2023/04/24 11:58:48;;;;;;;;;;;;;;;15.12;100.00;97074.41;4999500;28;20602;-76
2023/04/24 12:01:14;;;;;;;;;;;;;;;15.23;100.00;97074.91;5000977;28;19925;-78
2023/04/24 12:03:42;;;;;;;;;;;;;;;15.04;100.00;97073.28;4988185;28;19973;-77
2023/04/24 12:06:10;;;;;;;;;;;;;;;15.16;100.00;97071.91;5024913;28;19955;-77
2023/04/24 12:08:36;;;;;;;;;;;;;;;15.24;100.00;97068.44;5019629;28;19929;-77
2023/04/24 12:11:03;;;;;;;;;;;;;;;15.28;100.00;97061.34;5011750;28;19987;-77
2023/04/24 12:13:30;;;;;;;;;;;;;;;15.29;100.00;97068.31;5007110;28;20324;-77
2023/04/24 12:15:57;;;;;;;;;;;;;;;15.38;100.00;97067.19;5014442;28;20312;-78
2023/04/24 12:18:24;;;;;;;;;;;;;;;15.46;100.00;97076.41;5023646;28;19925;-77
2023/04/24 12:20:50;;;;;;;;;;;;;;;15.21;100.00;97056.41;5023164;28;19933;-78
2023/04/24 12:23:17;;;;;;;;;;;;;;;15.31;100.00;97074.94;5016290;28;19929;-76
2023/04/24 12:25:43;;;;;;;;;;;;;;;15.18;100.00;97075.06;5009492;28;19964;-78
2023/04/24 12:28:11;;;;;;;;;;;;;;;15.23;100.00;97073.00;5012824;28;19935;-77
2023/04/24 12:30:42;;;;;;;;;;;;;;;15.26;100.00;97074.28;5012709;28;19937;-77
2023/04/24 12:33:09;;;;;;;;;;;;;;;15.31;100.00;97074.16;5002783;28;19973;-76
2023/04/24 12:35:35;;;;;;;;;;;;;;;15.43;100.00;97068.97;5008382;28;20515;-77